Time;durP1;ratioP1;P1;durP2;ratioP2;P2;SDS_P1;SDS_P2;PMS_P1;PMS_P2;Temp;Humidity;BMP_temperature;BMP_pressure;BME280_temperature;BME280_humidity;BME280_pressure;Samples;Min_cycle;Max_cycle;Signal;HPM_P1;HPM_P2
2022/05/31 00:01:52;;;;;;;2.95;1.80;;;9.00;99.90;;;;;;5077267;28;20086;-67
2022/05/31 00:04:18;;;;;;;2.85;1.67;;;9.00;99.90;;;;;;5085389;28;20127;-68
2022/05/31 00:06:44;;;;;;;2.65;1.60;;;9.10;99.90;;;;;;5051785;28;20056;-68
2022/05/31 00:09:12;;;;;;;2.25;1.70;;;9.10;99.90;;;;;;5070319;28;20044;-67
2022/05/31 00:11:38;;;;;;;2.72;1.45;;;9.10;99.90;;;;;;5084513;27;20090;-68
2022/05/31 00:14:05;;;;;;;2.50;1.67;;;9.10;99.90;;;;;;5092284;27;20052;-67
2022/05/31 00:16:31;;;;;;;2.13;1.60;;;9.10;99.90;;;;;;5082156;28;20123;-68
2022/05/31 00:18:57;;;;;;;2.97;1.80;;;9.10;99.90;;;;;;5060091;28;20044;-67
2022/05/31 00:21:36;;;;;;;4.75;2.60;;;9.10;99.90;;;;;;5090393;28;20047;-67
2022/05/31 00:24:07;;;;;;;5.78;2.20;;;9.10;99.90;;;;;;5090080;28;20082;-68
2022/05/31 00:26:32;;;;;;;2.55;1.60;;;9.10;99.90;;;;;;5105680;28;20051;-69
2022/05/31 00:28:58;;;;;;;3.28;2.20;;;9.00;99.90;;;;;;5097300;27;20043;-69
2022/05/31 00:31:24;;;;;;;4.15;2.47;;;9.00;99.90;;;;;;5077117;28;20044;-68
2022/05/31 00:33:50;;;;;;;4.72;2.28;;;9.00;99.90;;;;;;5103754;28;20051;-68
2022/05/31 00:36:16;;;;;;;3.55;1.83;;;9.00;99.90;;;;;;5101459;28;20039;-69
2022/05/31 00:38:42;;;;;;;3.50;2.05;;;9.00;99.90;;;;;;5073172;28;20109;-68
2022/05/31 00:41:23;;;;;;;4.18;2.35;;;9.00;99.90;;;;;;5087577;28;20582;-68
2022/05/31 00:43:50;;;;;;;4.25;2.17;;;9.00;99.90;;;;;;5071976;28;20071;-68
2022/05/31 00:46:16;;;;;;;3.47;2.00;;;9.00;99.90;;;;;;5067458;28;20054;-67
2022/05/31 00:48:55;;;;;;;3.83;1.90;;;9.00;99.90;;;;;;5073822;28;20480;-67
2022/05/31 00:51:23;;;;;;;2.90;1.80;;;9.00;99.90;;;;;;5073937;28;20127;-68
2022/05/31 00:53:53;;;;;;;2.80;1.95;;;9.00;99.90;;;;;;5097731;28;20079;-67
2022/05/31 00:56:22;;;;;;;3.08;1.92;;;9.00;99.90;;;;;;5078110;28;20134;-67
2022/05/31 00:59:10;;;;;;;2.83;1.90;;;9.00;99.90;;;;;;5085711;28;20378;-67
2022/05/31 01:01:39;;;;;;;2.72;1.90;;;9.00;99.90;;;;;;5088788;28;20048;-67
2022/05/31 01:04:05;;;;;;;3.77;2.40;;;9.00;99.90;;;;;;5133271;27;20047;-68
2022/05/31 01:06:33;;;;;;;4.35;2.15;;;9.00;99.90;;;;;;5090016;28;20074;-67
2022/05/31 01:08:59;;;;;;;3.60;2.35;;;9.00;99.90;;;;;;5070883;28;20040;-67
2022/05/31 01:11:28;;;;;;;4.43;2.40;;;9.10;99.90;;;;;;5094624;28;20418;-67
2022/05/31 01:13:55;;;;;;;4.10;2.47;;;9.00;99.90;;;;;;5095552;27;20070;-67
2022/05/31 01:16:22;;;;;;;4.40;2.38;;;8.90;99.90;;;;;;5077794;28;20050;-68
2022/05/31 01:18:50;;;;;;;3.28;1.92;;;8.90;99.90;;;;;;5073591;28;20051;-67
2022/05/31 01:21:16;;;;;;;4.30;2.22;;;8.90;99.90;;;;;;5114641;27;20036;-67
2022/05/31 01:24:09;;;;;;;5.15;2.80;;;8.90;99.90;;;;;;5092616;28;20044;-68
2022/05/31 01:26:55;;;;;;;3.70;2.58;;;9.00;99.90;;;;;;5060897;28;20102;-67
2022/05/31 01:29:29;;;;;;;3.42;2.50;;;9.00;99.90;;;;;;5069150;28;20040;-68
2022/05/31 01:32:01;;;;;;;3.97;2.28;;;9.00;99.90;;;;;;5092917;28;20139;-69
2022/05/31 01:34:48;;;;;;;4.05;2.50;;;9.00;99.90;;;;;;5090933;27;20093;-68
2022/05/31 01:37:14;;;;;;;3.15;2.42;;;9.00;99.90;;;;;;5092464;28;20047;-71
2022/05/31 01:39:57;;;;;;;3.13;2.33;;;9.00;99.90;;;;;;5097016;28;20052;-68
2022/05/31 01:42:30;;;;;;;3.30;2.50;;;9.00;99.90;;;;;;5085903;28;20161;-69
2022/05/31 01:45:12;;;;;;;3.53;2.70;;;9.00;99.90;;;;;;5084528;28;20058;-68
2022/05/31 01:47:38;;;;;;;4.30;2.83;;;9.00;99.90;;;;;;5090566;27;20052;-69
2022/05/31 01:50:09;;;;;;;4.65;2.72;;;9.00;99.90;;;;;;5069353;28;20137;-68
2022/05/31 01:52:35;;;;;;;4.38;3.08;;;9.10;99.90;;;;;;5099943;28;20072;-69
2022/05/31 01:55:02;;;;;;;4.15;3.15;;;9.10;99.90;;;;;;5076841;28;20040;-68
2022/05/31 01:57:32;;;;;;;4.47;3.50;;;9.10;99.90;;;;;;5087333;28;20048;-68
2022/05/31 02:00:05;;;;;;;3.50;2.80;;;9.10;99.90;;;;;;5096995;28;20440;-68
2022/05/31 02:02:31;;;;;;;3.80;2.72;;;9.10;99.90;;;;;;5096777;28;20044;-68
2022/05/31 02:04:57;;;;;;;4.90;3.00;;;9.10;99.90;;;;;;5092118;28;20044;-69
2022/05/31 02:07:25;;;;;;;4.35;2.70;;;9.10;99.90;;;;;;5095376;28;20383;-68
2022/05/31 02:09:53;;;;;;;4.20;3.58;;;9.10;99.90;;;;;;5094236;28;20043;-68
2022/05/31 02:12:21;;;;;;;4.22;3.15;;;9.10;99.90;;;;;;5082203;28;20056;-67
2022/05/31 02:14:47;;;;;;;5.05;3.22;;;9.10;99.90;;;;;;5095150;28;20421;-67
2022/05/31 02:17:16;;;;;;;4.28;3.13;;;9.00;99.90;;;;;;5091490;28;20110;-68
2022/05/31 02:19:42;;;;;;;5.18;3.53;;;9.00;99.90;;;;;;5089472;28;20569;-68
2022/05/31 02:22:17;;;;;;;6.65;3.90;;;9.00;99.90;;;;;;5077194;28;20490;-67
2022/05/31 02:24:43;;;;;;;5.90;3.03;;;9.00;99.90;;;;;;5096761;28;20043;-67
2022/05/31 02:27:10;;;;;;;4.07;3.20;;;9.00;99.90;;;;;;5071345;28;20044;-68
2022/05/31 02:29:38;;;;;;;4.07;3.10;;;9.10;99.90;;;;;;5070461;28;20085;-68
2022/05/31 02:32:06;;;;;;;3.75;2.92;;;9.10;99.90;;;;;;5093702;28;20664;-67
2022/05/31 02:34:39;;;;;;;3.83;2.95;;;9.10;99.90;;;;;;5099113;28;20506;-67
2022/05/31 02:37:05;;;;;;;3.25;2.83;;;9.10;99.90;;;;;;5096432;28;20051;-68
2022/05/31 02:39:31;;;;;;;4.53;3.15;;;9.10;99.90;;;;;;5094342;28;20085;-68
2022/05/31 02:41:57;;;;;;;4.15;3.25;;;9.10;99.90;;;;;;5076449;28;20065;-69
2022/05/31 02:44:23;;;;;;;4.15;3.10;;;9.10;99.90;;;;;;5095861;28;20083;-68
2022/05/31 02:46:49;;;;;;;4.72;3.80;;;9.10;99.90;;;;;;5077882;28;20520;-68
2022/05/31 02:49:16;;;;;;;5.10;3.63;;;9.10;99.90;;;;;;5100911;28;20079;-68
2022/05/31 02:51:43;;;;;;;4.65;3.67;;;9.10;99.90;;;;;;5079312;28;20042;-68
2022/05/31 02:54:12;;;;;;;3.55;3.13;;;9.10;99.90;;;;;;5078599;28;20042;-69
2022/05/31 02:56:38;;;;;;;4.70;4.03;;;9.10;99.90;;;;;;5080743;28;20056;-68
2022/05/31 02:59:05;;;;;;;4.55;3.30;;;9.10;99.90;;;;;;5102132;28;20043;-69
2022/05/31 03:01:34;;;;;;;5.65;4.45;;;9.10;99.90;;;;;;5060353;28;20056;-68
2022/05/31 03:04:01;;;;;;;5.40;4.63;;;9.10;99.90;;;;;;5085500;28;20142;-69
2022/05/31 03:06:27;;;;;;;4.65;4.15;;;9.10;99.90;;;;;;5102144;27;20036;-69
2022/05/31 03:08:52;;;;;;;5.43;4.20;;;9.10;99.90;;;;;;5085110;28;20119;-68
2022/05/31 03:11:44;;;;;;;4.80;3.65;;;9.10;99.90;;;;;;5070430;28;20126;-68
2022/05/31 03:14:25;;;;;;;4.65;4.00;;;9.10;99.90;;;;;;5090575;28;20063;-68
2022/05/31 03:17:09;;;;;;;5.43;4.30;;;9.10;99.90;;;;;;5080597;28;20044;-68
2022/05/31 03:19:45;;;;;;;4.70;4.20;;;9.10;99.90;;;;;;5103025;28;20043;-68
2022/05/31 03:22:17;;;;;;;5.72;4.88;;;9.20;99.90;;;;;;5100486;28;20039;-68
2022/05/31 03:24:52;;;;;;;5.80;4.68;;;9.10;99.90;;;;;;5103490;28;20073;-68
2022/05/31 03:27:18;;;;;;;6.93;4.93;;;9.10;99.90;;;;;;5082367;28;20575;-67
2022/05/31 03:29:47;;;;;;;6.60;4.45;;;9.20;99.90;;;;;;5085241;28;20126;-68
2022/05/31 03:32:15;;;;;;;5.90;4.75;;;9.10;99.90;;;;;;5103621;28;20070;-69
2022/05/31 03:34:41;;;;;;;7.15;4.40;;;9.10;99.90;;;;;;5102441;28;20087;-68
2022/05/31 03:37:06;;;;;;;6.07;4.93;;;9.10;99.90;;;;;;5101345;28;20453;-68
2022/05/31 03:39:32;;;;;;;6.70;5.13;;;9.20;99.90;;;;;;5099925;28;20119;-68
2022/05/31 03:41:58;;;;;;;4.95;4.40;;;9.20;99.90;;;;;;5102359;28;20035;-68
2022/05/31 03:44:24;;;;;;;5.40;4.53;;;9.20;99.90;;;;;;5088724;28;20048;-68
2022/05/31 03:46:50;;;;;;;6.40;5.10;;;9.30;99.90;;;;;;5099541;27;20038;-68
2022/05/31 03:49:16;;;;;;;5.15;4.65;;;9.20;99.90;;;;;;5104090;28;20035;-68
2022/05/31 03:51:49;;;;;;;5.82;4.70;;;9.20;99.90;;;;;;5084856;28;20040;-68
2022/05/31 03:54:15;;;;;;;6.50;5.05;;;9.30;99.90;;;;;;5103113;28;20047;-68
2022/05/31 03:56:40;;;;;;;5.82;4.85;;;9.30;99.90;;;;;;5107123;28;20135;-68
2022/05/31 03:59:06;;;;;;;7.32;5.43;;;9.30;99.90;;;;;;5071023;28;20118;-69
2022/05/31 04:01:32;;;;;;;7.30;5.15;;;9.30;99.90;;;;;;5070478;28;20063;-68
2022/05/31 04:03:58;;;;;;;6.93;5.93;;;9.40;99.90;;;;;;5097613;27;20055;-68
2022/05/31 04:06:24;;;;;;;6.35;4.88;;;9.30;99.90;;;;;;5098554;28;20406;-69
2022/05/31 04:08:50;;;;;;;5.93;4.93;;;9.30;99.90;;;;;;5083629;28;20563;-69
2022/05/31 04:11:16;;;;;;;6.63;5.55;;;9.40;99.90;;;;;;5081605;28;20146;-69
2022/05/31 04:13:42;;;;;;;7.47;5.40;;;9.40;99.90;;;;;;5095700;28;20665;-69
2022/05/31 04:16:14;;;;;;;7.05;5.18;;;9.40;99.90;;;;;;5056680;28;20055;-69
2022/05/31 04:18:40;;;;;;;6.78;5.13;;;9.50;99.90;;;;;;5095207;28;20768;-69
2022/05/31 04:21:08;;;;;;;6.57;5.65;;;9.50;99.90;;;;;;5090485;28;20524;-69
2022/05/31 04:26:19;;;;;;;7.15;5.20;;;9.50;99.90;;;;;;5106891;27;20048;-69
2022/05/31 04:28:45;;;;;;;6.90;5.40;;;9.50;99.90;;;;;;5068501;28;20050;-69
2022/05/31 04:31:11;;;;;;;6.68;5.60;;;9.50;99.90;;;;;;5073264;28;20238;-68
2022/05/31 04:33:37;;;;;;;8.32;6.25;;;9.50;99.90;;;;;;5099566;28;20027;-69
2022/05/31 04:36:15;;;;;;;6.57;5.65;;;9.50;99.90;;;;;;5079866;28;20096;-69
2022/05/31 04:38:41;;;;;;;7.10;5.70;;;9.60;99.90;;;;;;5098279;28;20048;-69
2022/05/31 04:41:14;;;;;;;7.13;5.15;;;9.60;99.90;;;;;;5075957;28;20058;-69
2022/05/31 04:43:40;;;;;;;7.57;5.60;;;9.60;99.90;;;;;;5097014;28;20039;-69
2022/05/31 04:46:14;;;;;;;6.70;6.07;;;9.60;99.90;;;;;;5083979;28;20158;-68
2022/05/31 04:48:40;;;;;;;6.13;5.53;;;9.60;99.90;;;;;;5085776;28;20081;-69
2022/05/31 04:51:05;;;;;;;6.38;5.75;;;9.60;99.90;;;;;;5103548;27;20036;-68
2022/05/31 04:53:32;;;;;;;6.03;5.43;;;9.70;99.90;;;;;;5081291;28;20149;-69
2022/05/31 04:56:06;;;;;;;6.43;5.63;;;9.70;99.90;;;;;;5101142;28;20105;-68
2022/05/31 04:58:33;;;;;;;7.28;6.07;;;9.80;99.90;;;;;;5095180;28;20100;-68
2022/05/31 05:01:02;;;;;;;6.90;6.03;;;9.80;99.90;;;;;;5088888;28;20405;-68
2022/05/31 05:03:31;;;;;;;7.65;6.13;;;9.80;99.90;;;;;;5100192;28;20075;-69
2022/05/31 05:06:04;;;;;;;6.53;5.80;;;9.80;99.90;;;;;;5102747;28;20771;-69
2022/05/31 05:08:31;;;;;;;7.00;5.93;;;9.80;99.90;;;;;;5102565;28;20062;-69
2022/05/31 05:11:00;;;;;;;6.43;5.82;;;9.80;99.90;;;;;;5094270;27;20559;-69
2022/05/31 05:13:26;;;;;;;6.90;5.60;;;9.90;99.90;;;;;;5100531;27;20039;-70
2022/05/31 05:15:54;;;;;;;7.38;6.20;;;9.90;99.90;;;;;;5097619;27;20085;-69
2022/05/31 05:18:21;;;;;;;6.60;5.70;;;9.90;99.90;;;;;;5085784;27;20036;-69
2022/05/31 05:20:48;;;;;;;6.65;5.90;;;10.00;99.90;;;;;;5085539;27;20035;-68
2022/05/31 05:23:17;;;;;;;7.07;5.43;;;10.00;99.90;;;;;;5107220;27;20099;-69
2022/05/31 05:25:50;;;;;;;7.32;5.95;;;10.00;99.90;;;;;;5101962;27;20035;-69
2022/05/31 05:31:01;;;;;;;7.53;5.72;;;10.10;99.90;;;;;;5118400;27;20335;-69
2022/05/31 05:33:28;;;;;;;6.30;5.50;;;10.10;99.90;;;;;;5141582;27;20046;-68
2022/05/31 05:35:54;;;;;;;7.65;6.38;;;10.10;99.90;;;;;;5085697;27;20054;-69
2022/05/31 05:38:20;;;;;;;7.15;5.75;;;10.20;99.90;;;;;;5105415;27;20039;-69
2022/05/31 05:40:46;;;;;;;6.20;5.60;;;10.20;99.90;;;;;;5099597;27;20051;-69
2022/05/31 05:43:13;;;;;;;7.25;5.90;;;10.20;99.90;;;;;;5116236;27;20051;-68
2022/05/31 05:45:39;;;;;;;6.20;5.53;;;10.30;99.90;;;;;;5085012;27;20035;-69
2022/05/31 05:48:05;;;;;;;7.07;5.38;;;10.30;99.90;;;;;;5098511;27;20134;-69
2022/05/31 05:50:34;;;;;;;8.50;5.70;;;10.30;99.90;;;;;;5082029;27;20068;-68
2022/05/31 05:53:06;;;;;;;7.45;5.50;;;10.30;99.90;;;;;;5069103;27;20043;-68
2022/05/31 05:55:32;;;;;;;6.70;5.25;;;10.40;99.90;;;;;;5133013;27;20055;-71
2022/05/31 05:57:58;;;;;;;7.25;5.55;;;10.50;99.90;;;;;;5102833;27;20041;-68
2022/05/31 06:00:23;;;;;;;5.82;5.22;;;10.50;99.90;;;;;;5095077;27;20114;-70
2022/05/31 06:02:57;;;;;;;6.93;5.57;;;10.50;99.90;;;;;;5065006;28;20529;-69
2022/05/31 06:05:28;;;;;;;5.40;4.90;;;10.60;99.90;;;;;;5096210;27;20035;-68
2022/05/31 06:08:09;;;;;;;6.32;5.28;;;10.60;99.90;;;;;;5104197;27;20403;-68
2022/05/31 06:11:02;;;;;;;6.50;4.85;;;10.70;99.90;;;;;;5102320;27;20890;-69
2022/05/31 06:13:37;;;;;;;7.50;5.05;;;10.70;99.90;;;;;;5086861;27;20516;-68
2022/05/31 06:16:05;;;;;;;6.57;5.13;;;10.70;99.90;;;;;;5106469;27;20047;-69
2022/05/31 06:18:56;;;;;;;7.28;5.38;;;10.80;99.90;;;;;;5103768;27;20040;-68
2022/05/31 06:21:24;;;;;;;7.90;5.45;;;10.80;99.90;;;;;;5139234;27;20569;-68
2022/05/31 06:23:50;;;;;;;8.45;5.25;;;10.90;99.90;;;;;;5101994;28;20035;-67
2022/05/31 06:26:19;;;;;;;6.75;5.65;;;10.90;99.90;;;;;;5104637;27;20559;-67
2022/05/31 06:28:46;;;;;;;6.00;5.40;;;10.90;99.90;;;;;;5098976;27;20145;-69
2022/05/31 06:31:12;;;;;;;7.40;5.30;;;11.00;99.90;;;;;;5102741;28;20027;-68
2022/05/31 06:33:38;;;;;;;5.47;4.95;;;11.00;99.90;;;;;;5084452;28;20046;-68
2022/05/31 06:36:05;;;;;;;6.22;5.05;;;11.10;99.90;;;;;;5135299;27;20571;-68
2022/05/31 06:38:31;;;;;;;5.63;5.07;;;11.10;99.90;;;;;;5101390;28;20070;-68
2022/05/31 06:40:57;;;;;;;6.95;5.43;;;11.10;99.90;;;;;;5088912;28;20075;-68
2022/05/31 06:43:23;;;;;;;6.88;5.90;;;11.20;99.90;;;;;;5086005;28;20078;-67
2022/05/31 06:45:50;;;;;;;6.38;5.30;;;11.30;99.90;;;;;;5105520;28;20051;-68
2022/05/31 06:48:16;;;;;;;7.35;5.47;;;11.30;99.90;;;;;;5082412;28;20519;-69
2022/05/31 06:50:42;;;;;;;6.10;5.07;;;11.40;99.90;;;;;;5104596;28;20410;-68
2022/05/31 06:59:00;;;;;;;5.90;5.15;;;11.60;99.90;;;;;;5058308;28;20040;-68
2022/05/31 07:01:31;;;;;;;8.07;6.07;;;11.80;99.90;;;;;;5090669;28;20413;-68
2022/05/31 07:04:01;;;;;;;8.07;5.22;;;11.80;99.90;;;;;;5103013;27;20043;-68
2022/05/31 07:06:27;;;;;;;8.40;5.30;;;12.00;99.90;;;;;;5103445;28;20028;-69
2022/05/31 07:08:53;;;;;;;8.75;4.95;;;12.10;99.90;;;;;;5085779;27;20035;-68
2022/05/31 07:11:20;;;;;;;6.53;4.93;;;12.20;99.90;;;;;;5086326;28;20524;-68
2022/05/31 07:13:46;;;;;;;8.00;5.28;;;12.40;99.90;;;;;;5082767;27;20066;-68
2022/05/31 07:16:12;;;;;;;6.18;4.75;;;12.50;99.90;;;;;;5083477;28;20401;-68
2022/05/31 07:18:38;;;;;;;5.95;4.95;;;12.60;99.90;;;;;;5119581;27;20031;-68
2022/05/31 07:21:04;;;;;;;7.05;4.70;;;12.70;99.90;;;;;;5098510;28;20055;-69
2022/05/31 07:23:30;;;;;;;7.40;5.07;;;12.80;99.90;;;;;;5097086;28;20039;-69
2022/05/31 07:25:57;;;;;;;6.70;4.78;;;12.80;99.90;;;;;;5099432;27;20039;-68
2022/05/31 07:28:23;;;;;;;6.15;4.80;;;13.00;99.90;;;;;;5116951;27;20038;-68
2022/05/31 07:30:49;;;;;;;8.05;4.85;;;13.10;99.90;;;;;;5103849;27;20467;-69
2022/05/31 07:33:15;;;;;;;6.18;4.50;;;13.30;99.90;;;;;;5065754;28;20035;-69
2022/05/31 07:35:41;;;;;;;6.97;4.80;;;13.60;99.90;;;;;;5089442;28;20043;-69
2022/05/31 07:38:07;;;;;;;6.47;4.60;;;13.80;99.90;;;;;;5080333;27;20046;-69
2022/05/31 07:40:34;;;;;;;7.13;4.45;;;14.00;99.90;;;;;;5133025;27;20084;-68
2022/05/31 07:43:01;;;;;;;8.07;4.40;;;14.20;99.90;;;;;;5081323;28;20035;-68
2022/05/31 07:45:27;;;;;;;6.22;3.83;;;14.40;99.90;;;;;;5097160;28;20175;-69
2022/05/31 07:47:53;;;;;;;5.95;3.50;;;14.50;99.90;;;;;;5097232;27;20088;-71
2022/05/31 07:50:19;;;;;;;6.00;3.60;;;14.70;99.90;;;;;;5096779;27;20055;-72
2022/05/31 07:52:45;;;;;;;7.40;3.40;;;14.80;99.90;;;;;;5085356;27;20078;-72
2022/05/31 07:55:11;;;;;;;7.18;3.88;;;14.90;99.90;;;;;;5117647;27;20126;-72
2022/05/31 08:00:22;;;;;;;6.82;3.30;;;15.10;99.90;;;;;;5090463;27;20557;-72
2022/05/31 08:02:48;;;;;;;5.68;3.40;;;15.30;99.90;;;;;;5134990;27;20512;-72
2022/05/31 08:05:14;;;;;;;6.88;3.47;;;15.40;99.90;;;;;;5105512;27;20142;-72
2022/05/31 08:07:40;;;;;;;5.72;3.38;;;15.60;99.90;;;;;;5100979;27;20227;-72
2022/05/31 08:10:10;;;;;;;5.63;3.38;;;15.80;99.90;;;;;;5103739;27;20035;-72
2022/05/31 08:12:36;;;;;;;7.30;3.90;;;15.80;99.90;;;;;;5087554;27;20047;-72
2022/05/31 08:15:04;;;;;;;7.80;3.25;;;15.90;99.90;;;;;;5105510;27;20043;-74
2022/05/31 08:17:29;;;;;;;5.88;4.10;;;16.00;99.90;;;;;;5120272;27;20043;-73
2022/05/31 08:19:56;;;;;;;5.53;3.50;;;16.10;99.90;;;;;;5074705;27;20039;-73
2022/05/31 08:22:22;;;;;;;6.07;4.28;;;16.30;99.90;;;;;;5085824;27;20043;-72
2022/05/31 08:24:47;;;;;;;7.10;4.30;;;16.40;99.90;;;;;;5090370;27;20419;-74
2022/05/31 08:27:13;;;;;;;8.43;4.22;;;16.40;99.90;;;;;;5068781;27;20459;-73
2022/05/31 08:29:40;;;;;;;5.40;3.78;;;16.50;99.90;;;;;;5119782;27;20092;-73
2022/05/31 08:32:07;;;;;;;7.20;4.10;;;16.60;99.90;;;;;;5099276;27;20039;-73
2022/05/31 08:34:33;;;;;;;5.63;3.50;;;16.60;99.90;;;;;;5087318;27;20048;-73
2022/05/31 08:36:59;;;;;;;7.85;3.75;;;16.70;99.90;;;;;;5083897;27;20051;-72
2022/05/31 08:39:25;;;;;;;5.88;3.80;;;16.80;99.90;;;;;;5086065;27;20053;-74
2022/05/31 08:41:56;;;;;;;7.40;4.32;;;16.90;99.90;;;;;;5100640;27;20077;-72
2022/05/31 08:44:31;;;;;;;6.97;4.07;;;17.00;99.90;;;;;;5086111;27;20103;-72
2022/05/31 08:47:22;;;;;;;5.47;3.53;;;17.00;99.20;;;;;;5099880;27;20043;-68
2022/05/31 08:53:05;;;;;;;5.72;4.00;;;17.20;99.40;;;;;;5102739;27;20138;-68
2022/05/31 08:58:32;;;;;;;12.30;4.60;;;17.20;99.10;;;;;;5100203;27;20134;-69
2022/05/31 09:01:00;;;;;;;7.28;4.70;;;17.20;97.20;;;;;;5111562;27;20039;-69
2022/05/31 09:03:31;;;;;;;9.45;4.97;;;17.20;97.00;;;;;;5082125;27;20097;-69
2022/05/31 09:06:09;;;;;;;8.07;4.55;;;17.20;97.20;;;;;;5087447;27;20132;-69
2022/05/31 09:09:03;;;;;;;5.78;4.28;;;17.40;94.00;;;;;;5138825;27;20118;-69
2022/05/31 09:11:43;;;;;;;8.00;5.15;;;17.50;94.60;;;;;;5112081;27;20043;-68
2022/05/31 09:14:47;;;;;;;7.00;4.47;;;17.40;94.60;;;;;;5100408;27;20134;-69
2022/05/31 09:17:41;;;;;;;8.77;5.72;;;17.20;94.60;;;;;;5085203;27;20049;-69
2022/05/31 09:20:26;;;;;;;8.63;5.30;;;17.00;94.50;;;;;;5135559;27;20506;-69
2022/05/31 09:22:54;;;;;;;7.45;5.15;;;16.90;95.20;;;;;;5122309;27;20058;-69
2022/05/31 09:25:20;;;;;;;9.73;5.50;;;16.80;94.90;;;;;;5082514;27;20082;-68
2022/05/31 09:27:49;;;;;;;8.23;6.00;;;16.80;96.80;;;;;;5105520;27;20035;-69
2022/05/31 09:30:37;;;;;;;7.00;6.30;;;16.90;94.00;;;;;;5084948;27;20524;-68
2022/05/31 09:33:28;;;;;;;6.95;5.78;;;17.00;91.90;;;;;;5104379;27;20484;-69
2022/05/31 09:36:00;;;;;;;8.73;5.85;;;17.20;92.40;;;;;;5087173;27;20512;-69
2022/05/31 09:38:38;;;;;;;8.93;6.40;;;17.30;94.00;;;;;;5106766;27;20588;-68
2022/05/31 09:41:20;;;;;;;9.10;6.47;;;17.40;93.20;;;;;;5086045;27;20168;-69
2022/05/31 09:44:09;;;;;;;8.38;5.57;;;17.60;92.60;;;;;;5100789;27;20220;-68
2022/05/31 09:46:59;;;;;;;8.85;5.93;;;17.70;91.70;;;;;;5098156;28;20051;-68
2022/05/31 09:49:36;;;;;;;;;;;17.60;91.10;;;;;;5100611;27;20493;-69
2022/05/31 09:52:07;;;;;;;7.43;5.68;;;17.50;92.20;;;;;;5097953;27;19927;-69
2022/05/31 09:58:00;;;;;;;8.95;5.90;;;17.30;92.50;;;;;;5136383;27;20465;-67
2022/05/31 10:00:26;;;;;;;13.82;7.85;;;17.20;92.50;;;;;;5090620;27;20054;-68
2022/05/31 10:03:09;;;;;;;6.80;5.60;;;17.20;90.80;;;;;;5066779;27;20051;-68
2022/05/31 10:05:36;;;;;;;11.55;5.82;;;17.10;93.40;;;;;;5120291;27;20051;-68
2022/05/31 10:08:11;;;;;;;8.07;5.00;;;17.10;94.90;;;;;;5081108;27;20546;-68
2022/05/31 10:10:43;;;;;;;8.73;5.38;;;17.10;93.60;;;;;;5085936;27;20047;-69
2022/05/31 10:13:09;;;;;;;8.82;5.18;;;17.20;93.30;;;;;;5084552;27;20516;-68
2022/05/31 10:15:44;;;;;;;7.70;5.00;;;17.10;94.00;;;;;;5100560;27;20547;-68
2022/05/31 10:18:32;;;;;;;6.15;4.60;;;17.10;94.00;;;;;;5081291;27;20806;-69
2022/05/31 10:21:05;;;;;;;8.45;5.07;;;17.00;93.50;;;;;;5082365;27;20039;-69
2022/05/31 10:23:43;;;;;;;7.20;4.32;;;17.00;92.80;;;;;;5081726;27;20039;-68
2022/05/31 10:26:24;;;;;;;7.22;4.10;;;16.90;92.70;;;;;;5135337;27;20508;-69
2022/05/31 10:28:57;;;;;;;6.18;3.83;;;17.00;89.10;;;;;;5079623;28;20066;-68
2022/05/31 10:31:32;;;;;;;5.88;3.50;;;16.90;89.20;;;;;;5097620;27;20375;-70
2022/05/31 10:34:01;;;;;;;7.68;4.57;;;17.00;91.40;;;;;;5086934;27;20408;-71
2022/05/31 10:36:49;;;;;;;8.25;4.40;;;17.00;90.20;;;;;;5102063;28;20497;-70
2022/05/31 10:39:22;;;;;;;7.65;4.93;;;17.20;86.30;;;;;;5100483;27;20048;-68
2022/05/31 10:41:52;;;;;;;8.10;3.92;;;17.30;87.20;;;;;;5087785;28;20556;-68
2022/05/31 10:44:20;;;;;;;7.55;4.50;;;17.30;85.10;;;;;;5086000;27;20031;-69
2022/05/31 10:46:51;;;;;;;5.80;4.25;;;17.40;86.20;;;;;;5085704;28;20076;-69
2022/05/31 10:49:19;;;;;;;8.38;4.50;;;17.40;82.50;;;;;;5103409;27;20055;-69
2022/05/31 10:51:54;;;;;;;6.10;4.38;;;17.50;82.00;;;;;;5098447;28;20401;-68
2022/05/31 10:54:39;;;;;;;7.55;4.65;;;17.50;79.70;;;;;;5099947;27;20052;-69
2022/05/31 10:57:29;;;;;;;7.38;4.43;;;17.60;80.40;;;;;;5099315;28;20532;-69
2022/05/31 11:00:14;;;;;;;5.53;4.03;;;17.80;82.70;;;;;;5097504;28;20055;-68
2022/05/31 11:03:02;;;;;;;6.25;4.20;;;17.90;81.20;;;;;;5084047;27;20046;-68
2022/05/31 11:06:05;;;;;;;6.43;5.03;;;18.10;79.00;;;;;;5095339;27;20485;-68
2022/05/31 11:11:48;;;;;;;7.45;4.53;;;18.00;73.90;;;;;;5099143;28;20078;-69
2022/05/31 11:14:25;;;;;;;7.05;4.78;;;17.90;71.30;;;;;;5135040;27;20054;-69
2022/05/31 11:17:00;;;;;;;7.05;4.50;;;17.80;71.00;;;;;;5104160;28;20055;-68
2022/05/31 11:20:03;;;;;;;7.22;4.28;;;17.80;72.00;;;;;;5086728;27;20054;-69
2022/05/31 11:22:36;;;;;;;6.60;3.58;;;17.90;69.40;;;;;;5104843;27;20447;-68
2022/05/31 11:25:33;;;;;;;8.70;4.30;;;18.10;72.10;;;;;;5106308;27;20035;-68
2022/05/31 11:28:17;;;;;;;6.63;3.60;;;18.30;72.00;;;;;;5082538;27;20048;-69
2022/05/31 11:30:57;;;;;;;7.30;4.18;;;18.50;68.60;;;;;;5099344;27;20130;-68
2022/05/31 11:33:48;;;;;;;7.10;4.70;;;18.60;67.40;;;;;;5105533;27;20046;-68
2022/05/31 11:36:32;;;;;;;6.63;4.80;;;18.50;69.80;;;;;;5104549;27;20383;-69
2022/05/31 11:39:19;;;;;;;8.18;4.10;;;18.40;68.40;;;;;;5100352;27;20565;-69
2022/05/31 11:42:11;;;;;;;6.28;3.60;;;18.30;65.50;;;;;;5104322;27;20075;-69
2022/05/31 11:44:58;;;;;;;6.43;3.60;;;18.20;66.20;;;;;;5100495;27;20123;-70
2022/05/31 11:47:42;;;;;;;7.78;4.03;;;18.20;71.30;;;;;;5105140;27;20506;-70
2022/05/31 11:50:09;;;;;;;5.75;3.17;;;18.30;73.70;;;;;;5088099;27;20055;-69
2022/05/31 11:53:13;;;;;;;5.35;3.47;;;18.30;72.30;;;;;;5086343;27;20527;-69
2022/05/31 11:55:50;;;;;;;6.72;3.97;;;18.50;73.20;;;;;;5107381;27;20548;-68
2022/05/31 11:58:38;;;;;;;5.70;3.78;;;18.60;68.80;;;;;;5089623;27;20484;-69
2022/05/31 12:01:25;;;;;;;6.18;3.47;;;18.60;66.00;;;;;;5114616;27;20076;-69
2022/05/31 12:04:12;;;;;;;5.22;3.53;;;18.50;67.90;;;;;;5101665;27;20597;-69
2022/05/31 12:07:04;;;;;;;6.57;3.70;;;18.50;68.10;;;;;;5088901;27;20753;-69
2022/05/31 12:09:42;;;;;;;6.20;3.72;;;18.30;66.80;;;;;;5087302;27;20365;-70
2022/05/31 12:12:30;;;;;;;5.57;3.75;;;18.20;64.30;;;;;;5085452;27;20048;-69
2022/05/31 12:15:14;;;;;;;5.60;3.65;;;18.00;64.30;;;;;;5131668;27;20386;-69
2022/05/31 12:18:06;;;;;;;7.22;4.15;;;17.90;68.10;;;;;;5134878;27;20453;-69
2022/05/31 12:20:39;;;;;;;6.88;4.32;;;17.90;63.50;;;;;;5119709;27;20035;-69
2022/05/31 12:23:41;;;;;;;7.30;5.00;;;18.00;68.20;;;;;;5103466;27;20056;-69
2022/05/31 12:26:19;;;;;;;7.90;5.03;;;18.00;64.40;;;;;;5093487;27;20047;-68
2022/05/31 12:28:49;;;;;;;6.25;4.35;;;18.10;65.90;;;;;;5086127;27;20092;-69
2022/05/31 12:31:22;;;;;;;9.38;5.10;;;18.10;70.40;;;;;;5116927;27;20050;-69
2022/05/31 12:33:47;;;;;;;7.53;4.53;;;18.20;68.00;;;;;;5099800;27;20042;-69
2022/05/31 12:36:22;;;;;;;7.15;4.80;;;18.20;66.40;;;;;;5102078;27;20042;-68
2022/05/31 12:39:02;;;;;;;6.85;5.57;;;18.20;63.40;;;;;;5088646;27;20043;-69
2022/05/31 12:41:32;;;;;;;8.65;6.38;;;18.20;69.80;;;;;;5090524;27;20088;-69
2022/05/31 12:43:59;;;;;;;9.02;5.70;;;18.20;75.10;;;;;;5106750;27;20242;-69
2022/05/31 12:46:38;;;;;;;8.52;5.78;;;18.20;74.20;;;;;;5088017;27;20146;-69
2022/05/31 12:49:21;;;;;;;10.03;6.63;;;18.20;73.10;;;;;;5087919;27;20043;-68
2022/05/31 12:52:08;;;;;;;9.38;6.70;;;18.20;75.10;;;;;;5084276;27;20309;-68
2022/05/31 12:54:50;;;;;;;8.52;6.63;;;18.20;75.30;;;;;;5089728;27;20094;-68
2022/05/31 13:00:33;;;;;;;8.13;7.05;;;18.20;74.10;;;;;;5102101;27;20043;-68
2022/05/31 13:03:00;;;;;;;7.90;6.53;;;18.10;76.40;;;;;;5106626;27;20031;-68
2022/05/31 13:05:34;;;;;;;9.65;7.22;;;18.10;76.30;;;;;;5071225;27;20036;-68
2022/05/31 13:08:21;;;;;;;8.95;7.13;;;18.10;78.10;;;;;;5105534;27;20050;-69
2022/05/31 13:19:37;;;;;;;9.10;6.40;;;17.70;78.90;;;;;;5093603;27;20050;-69
2022/05/31 13:22:17;;;;;;;9.10;6.28;;;17.60;81.60;;;;;;5085785;27;20493;-68
2022/05/31 13:24:58;;;;;;;8.43;6.50;;;17.50;79.70;;;;;;5107242;27;20046;-68
2022/05/31 13:27:29;;;;;;;8.68;7.28;;;17.50;83.20;;;;;;5103568;27;20044;-68
2022/05/31 13:30:09;;;;;;;7.85;6.13;;;17.40;81.50;;;;;;5106928;27;20043;-67
2022/05/31 13:32:36;;;;;;;10.00;6.82;;;17.20;81.60;;;;;;5085415;27;20088;-68
2022/05/31 13:35:19;;;;;;;7.03;5.95;;;17.20;82.00;;;;;;5083092;27;20054;-69
2022/05/31 13:37:58;;;;;;;8.55;6.63;;;17.10;81.00;;;;;;5103715;27;20043;-68
2022/05/31 13:40:31;;;;;;;10.20;7.03;;;17.00;83.60;;;;;;5087630;27;20047;-69
2022/05/31 13:42:58;;;;;;;9.68;6.90;;;17.00;84.30;;;;;;5103256;27;20039;-69
2022/05/31 13:45:28;;;;;;;10.07;6.50;;;16.90;84.90;;;;;;5069385;27;20039;-69
2022/05/31 13:48:00;;;;;;;9.67;6.57;;;16.80;86.60;;;;;;5100906;27;20043;-69
2022/05/31 13:50:54;;;;;;;6.82;6.13;;;16.70;87.90;;;;;;5087309;27;20400;-69
2022/05/31 13:53:21;;;;;;;8.57;5.32;;;16.70;90.80;;;;;;5090582;27;20138;-69
2022/05/31 13:55:56;;;;;;;8.38;6.20;;;16.70;87.20;;;;;;5118525;27;20092;-69